sensor_id;sensor_type;location;lat;lon;timestamp;P1;durP1;ratioP1;P2;durP2;ratioP2
20954;SDS011;10636;19.390;-99.256;2022-12-29T00:01:02;4.80;;;3.67;;
20954;SDS011;10636;19.390;-99.256;2022-12-29T00:03:31;4.28;;;3.50;;
20954;SDS011;10636;19.390;-99.256;2022-12-29T00:05:59;3.50;;;3.20;;
20954;SDS011;10636;19.390;-99.256;2022-12-29T00:08:28;3.30;;;3.10;;
20954;SDS011;10636;19.390;-99.256;2022-12-29T00:11:08;4.05;;;3.70;;
20954;SDS011;10636;19.390;-99.256;2022-12-29T00:13:37;3.47;;;3.17;;
20954;SDS011;10636;19.390;-99.256;2022-12-29T00:16:23;3.80;;;3.25;;
20954;SDS011;10636;19.390;-99.256;2022-12-29T00:18:51;3.90;;;3.60;;
20954;SDS011;10636;19.390;-99.256;2022-12-29T00:21:21;3.40;;;3.20;;
20954;SDS011;10636;19.390;-99.256;2022-12-29T00:24:09;3.33;;;3.13;;
20954;SDS011;10636;19.390;-99.256;2022-12-29T00:26:58;3.40;;;3.10;;
20954;SDS011;10636;19.390;-99.256;2022-12-29T00:29:55;4.03;;;3.47;;
20954;SDS011;10636;19.390;-99.256;2022-12-29T00:32:40;3.03;;;2.83;;
20954;SDS011;10636;19.390;-99.256;2022-12-29T00:35:26;3.63;;;3.28;;
20954;SDS011;10636;19.390;-99.256;2022-12-29T00:37:57;3.58;;;3.28;;
20954;SDS011;10636;19.390;-99.256;2022-12-29T00:40:47;5.32;;;2.70;;
20954;SDS011;10636;19.390;-99.256;2022-12-29T00:43:34;4.32;;;3.17;;
20954;SDS011;10636;19.390;-99.256;2022-12-29T00:46:19;2.95;;;2.67;;
20954;SDS011;10636;19.390;-99.256;2022-12-29T00:48:48;5.45;;;3.13;;
20954;SDS011;10636;19.390;-99.256;2022-12-29T00:51:33;3.42;;;3.13;;
20954;SDS011;10636;19.390;-99.256;2022-12-29T00:54:02;3.47;;;3.17;;
20954;SDS011;10636;19.390;-99.256;2022-12-29T00:56:30;3.60;;;3.30;;
20954;SDS011;10636;19.390;-99.256;2022-12-29T00:59:01;3.20;;;2.90;;
20954;SDS011;10636;19.390;-99.256;2022-12-29T01:01:30;3.45;;;3.15;;
20954;SDS011;10636;19.390;-99.256;2022-12-29T01:03:59;3.30;;;3.00;;
20954;SDS011;10636;19.390;-99.256;2022-12-29T01:06:28;3.35;;;3.08;;
20954;SDS011;10636;19.390;-99.256;2022-12-29T01:08:57;3.45;;;3.15;;
20954;SDS011;10636;19.390;-99.256;2022-12-29T01:11:42;3.45;;;3.15;;
20954;SDS011;10636;19.390;-99.256;2022-12-29T01:14:12;3.67;;;3.30;;
20954;SDS011;10636;19.390;-99.256;2022-12-29T01:16:41;3.38;;;3.08;;
20954;SDS011;10636;19.390;-99.256;2022-12-29T01:19:10;3.80;;;3.50;;
20954;SDS011;10636;19.390;-99.256;2022-12-29T01:21:38;3.42;;;3.17;;
20954;SDS011;10636;19.390;-99.256;2022-12-29T01:24:07;3.60;;;3.30;;
20954;SDS011;10636;19.390;-99.256;2022-12-29T01:26:35;4.13;;;3.08;;
20954;SDS011;10636;19.390;-99.256;2022-12-29T01:29:04;3.70;;;3.40;;
20954;SDS011;10636;19.390;-99.256;2022-12-29T01:31:34;4.07;;;3.22;;
20954;SDS011;10636;19.390;-99.256;2022-12-29T01:34:03;3.25;;;3.05;;
20954;SDS011;10636;19.390;-99.256;2022-12-29T01:36:32;3.72;;;3.40;;
20954;SDS011;10636;19.390;-99.256;2022-12-29T01:39:01;3.47;;;3.17;;
20954;SDS011;10636;19.390;-99.256;2022-12-29T01:41:29;3.38;;;3.08;;
20954;SDS011;10636;19.390;-99.256;2022-12-29T01:43:59;3.63;;;3.33;;
20954;SDS011;10636;19.390;-99.256;2022-12-29T01:46:28;3.80;;;3.50;;
20954;SDS011;10636;19.390;-99.256;2022-12-29T01:49:05;3.60;;;3.30;;
20954;SDS011;10636;19.390;-99.256;2022-12-29T01:51:40;3.75;;;3.45;;
20954;SDS011;10636;19.390;-99.256;2022-12-29T01:54:11;3.95;;;3.30;;
20954;SDS011;10636;19.390;-99.256;2022-12-29T01:56:44;3.65;;;3.35;;
20954;SDS011;10636;19.390;-99.256;2022-12-29T01:59:15;3.88;;;3.58;;
20954;SDS011;10636;19.390;-99.256;2022-12-29T02:01:48;3.67;;;3.38;;
20954;SDS011;10636;19.390;-99.256;2022-12-29T02:04:19;4.18;;;3.72;;
20954;SDS011;10636;19.390;-99.256;2022-12-29T02:06:51;3.88;;;3.58;;
20954;SDS011;10636;19.390;-99.256;2022-12-29T02:09:23;3.88;;;3.58;;
20954;SDS011;10636;19.390;-99.256;2022-12-29T02:11:51;3.97;;;3.67;;
20954;SDS011;10636;19.390;-99.256;2022-12-29T02:14:20;3.90;;;3.55;;
20954;SDS011;10636;19.390;-99.256;2022-12-29T02:16:53;3.90;;;3.60;;
20954;SDS011;10636;19.390;-99.256;2022-12-29T02:22:39;3.90;;;3.50;;
20954;SDS011;10636;19.390;-99.256;2022-12-29T02:25:32;4.20;;;3.60;;
20954;SDS011;10636;19.390;-99.256;2022-12-29T02:28:24;3.75;;;3.42;;
20954;SDS011;10636;19.390;-99.256;2022-12-29T02:31:17;4.60;;;4.10;;
20954;SDS011;10636;19.390;-99.256;2022-12-29T02:33:53;4.30;;;3.90;;
20954;SDS011;10636;19.390;-99.256;2022-12-29T02:36:37;6.57;;;4.13;;
20954;SDS011;10636;19.390;-99.256;2022-12-29T02:39:11;6.15;;;5.40;;
20954;SDS011;10636;19.390;-99.256;2022-12-29T02:41:46;6.43;;;5.82;;
20954;SDS011;10636;19.390;-99.256;2022-12-29T02:44:25;6.43;;;5.47;;
20954;SDS011;10636;19.390;-99.256;2022-12-29T02:47:00;7.25;;;5.95;;
20954;SDS011;10636;19.390;-99.256;2022-12-29T02:49:36;8.27;;;6.63;;
20954;SDS011;10636;19.390;-99.256;2022-12-29T02:52:11;7.90;;;7.10;;
20954;SDS011;10636;19.390;-99.256;2022-12-29T02:54:44;8.60;;;7.70;;
20954;SDS011;10636;19.390;-99.256;2022-12-29T02:57:14;10.48;;;8.07;;
20954;SDS011;10636;19.390;-99.256;2022-12-29T02:59:56;9.52;;;7.95;;
20954;SDS011;10636;19.390;-99.256;2022-12-29T03:02:34;9.20;;;8.07;;
20954;SDS011;10636;19.390;-99.256;2022-12-29T03:05:22;8.73;;;7.60;;
20954;SDS011;10636;19.390;-99.256;2022-12-29T03:08:04;8.68;;;7.32;;
20954;SDS011;10636;19.390;-99.256;2022-12-29T03:10:41;9.90;;;7.05;;
20954;SDS011;10636;19.390;-99.256;2022-12-29T03:13:19;8.35;;;7.15;;
20954;SDS011;10636;19.390;-99.256;2022-12-29T03:16:12;8.73;;;7.32;;
20954;SDS011;10636;19.390;-99.256;2022-12-29T03:18:50;9.77;;;7.30;;
20954;SDS011;10636;19.390;-99.256;2022-12-29T03:21:27;7.93;;;7.13;;
20954;SDS011;10636;19.390;-99.256;2022-12-29T03:24:16;9.98;;;6.25;;
20954;SDS011;10636;19.390;-99.256;2022-12-29T03:26:48;7.35;;;6.05;;
20954;SDS011;10636;19.390;-99.256;2022-12-29T03:29:20;8.02;;;6.22;;
20954;SDS011;10636;19.390;-99.256;2022-12-29T03:31:49;7.93;;;6.97;;
20954;SDS011;10636;19.390;-99.256;2022-12-29T03:34:21;7.47;;;6.38;;
20954;SDS011;10636;19.390;-99.256;2022-12-29T03:36:52;6.60;;;5.90;;
20954;SDS011;10636;19.390;-99.256;2022-12-29T03:39:24;6.95;;;5.60;;
20954;SDS011;10636;19.390;-99.256;2022-12-29T03:41:54;6.75;;;6.10;;
20954;SDS011;10636;19.390;-99.256;2022-12-29T03:44:31;6.50;;;5.90;;
20954;SDS011;10636;19.390;-99.256;2022-12-29T03:47:01;6.78;;;5.15;;
20954;SDS011;10636;19.390;-99.256;2022-12-29T03:49:32;6.07;;;5.50;;
20954;SDS011;10636;19.390;-99.256;2022-12-29T03:52:00;5.70;;;5.10;;
20954;SDS011;10636;19.390;-99.256;2022-12-29T03:54:29;6.75;;;5.28;;
20954;SDS011;10636;19.390;-99.256;2022-12-29T03:56:58;6.55;;;5.15;;
20954;SDS011;10636;19.390;-99.256;2022-12-29T03:59:26;6.18;;;5.57;;
20954;SDS011;10636;19.390;-99.256;2022-12-29T04:01:55;7.10;;;6.20;;
20954;SDS011;10636;19.390;-99.256;2022-12-29T04:04:23;7.05;;;6.28;;
20954;SDS011;10636;19.390;-99.256;2022-12-29T04:06:53;7.25;;;6.57;;
20954;SDS011;10636;19.390;-99.256;2022-12-29T04:09:22;7.03;;;6.35;;
20954;SDS011;10636;19.390;-99.256;2022-12-29T04:11:50;7.20;;;6.50;;
20954;SDS011;10636;19.390;-99.256;2022-12-29T04:14:19;7.25;;;6.55;;
20954;SDS011;10636;19.390;-99.256;2022-12-29T04:16:47;8.38;;;6.57;;
20954;SDS011;10636;19.390;-99.256;2022-12-29T04:19:16;7.15;;;6.45;;
20954;SDS011;10636;19.390;-99.256;2022-12-29T04:21:44;7.03;;;6.40;;
20954;SDS011;10636;19.390;-99.256;2022-12-29T04:24:14;7.22;;;6.63;;
20954;SDS011;10636;19.390;-99.256;2022-12-29T04:26:43;7.47;;;6.40;;
20954;SDS011;10636;19.390;-99.256;2022-12-29T04:29:11;7.25;;;6.55;;
20954;SDS011;10636;19.390;-99.256;2022-12-29T04:31:40;6.53;;;5.93;;
20954;SDS011;10636;19.390;-99.256;2022-12-29T04:34:09;7.07;;;6.43;;
20954;SDS011;10636;19.390;-99.256;2022-12-29T04:36:37;7.10;;;6.47;;
20954;SDS011;10636;19.390;-99.256;2022-12-29T04:39:06;7.30;;;6.60;;
20954;SDS011;10636;19.390;-99.256;2022-12-29T04:41:36;7.20;;;6.10;;
20954;SDS011;10636;19.390;-99.256;2022-12-29T04:44:05;6.72;;;5.90;;
20954;SDS011;10636;19.390;-99.256;2022-12-29T04:46:33;8.02;;;5.95;;
20954;SDS011;10636;19.390;-99.256;2022-12-29T04:49:02;7.15;;;6.45;;
20954;SDS011;10636;19.390;-99.256;2022-12-29T04:51:34;6.75;;;6.15;;
20954;SDS011;10636;19.390;-99.256;2022-12-29T04:54:02;6.35;;;5.75;;
20954;SDS011;10636;19.390;-99.256;2022-12-29T04:56:31;6.53;;;5.88;;
20954;SDS011;10636;19.390;-99.256;2022-12-29T04:59:01;6.68;;;5.93;;
20954;SDS011;10636;19.390;-99.256;2022-12-29T05:01:29;6.35;;;5.82;;
20954;SDS011;10636;19.390;-99.256;2022-12-29T05:03:58;6.28;;;5.68;;
20954;SDS011;10636;19.390;-99.256;2022-12-29T05:06:26;5.95;;;5.43;;
20954;SDS011;10636;19.390;-99.256;2022-12-29T05:08:55;6.10;;;5.50;;
20954;SDS011;10636;19.390;-99.256;2022-12-29T05:11:23;5.72;;;5.22;;
20954;SDS011;10636;19.390;-99.256;2022-12-29T05:13:52;6.15;;;5.63;;
20954;SDS011;10636;19.390;-99.256;2022-12-29T05:16:22;5.50;;;5.10;;
20954;SDS011;10636;19.390;-99.256;2022-12-29T05:18:51;5.72;;;5.20;;
20954;SDS011;10636;19.390;-99.256;2022-12-29T05:21:19;6.15;;;5.13;;
20954;SDS011;10636;19.390;-99.256;2022-12-29T05:23:48;5.45;;;4.95;;
20954;SDS011;10636;19.390;-99.256;2022-12-29T05:26:16;5.70;;;5.20;;
20954;SDS011;10636;19.390;-99.256;2022-12-29T05:28:45;7.53;;;5.68;;
20954;SDS011;10636;19.390;-99.256;2022-12-29T05:31:13;5.65;;;5.15;;
20954;SDS011;10636;19.390;-99.256;2022-12-29T05:33:43;6.07;;;5.18;;
20954;SDS011;10636;19.390;-99.256;2022-12-29T05:36:12;5.60;;;5.00;;
20954;SDS011;10636;19.390;-99.256;2022-12-29T05:38:41;5.57;;;5.18;;
20954;SDS011;10636;19.390;-99.256;2022-12-29T05:41:09;5.57;;;5.13;;
20954;SDS011;10636;19.390;-99.256;2022-12-29T05:43:38;6.15;;;5.40;;
20954;SDS011;10636;19.390;-99.256;2022-12-29T05:46:06;5.88;;;5.38;;
20954;SDS011;10636;19.390;-99.256;2022-12-29T05:48:35;6.30;;;4.95;;
20954;SDS011;10636;19.390;-99.256;2022-12-29T05:51:05;5.70;;;5.20;;
20954;SDS011;10636;19.390;-99.256;2022-12-29T05:53:34;5.93;;;5.30;;
20954;SDS011;10636;19.390;-99.256;2022-12-29T05:56:02;5.47;;;4.97;;
20954;SDS011;10636;19.390;-99.256;2022-12-29T05:58:31;5.82;;;5.32;;
20954;SDS011;10636;19.390;-99.256;2022-12-29T06:00:59;6.13;;;5.53;;
20954;SDS011;10636;19.390;-99.256;2022-12-29T06:03:27;5.90;;;5.40;;
20954;SDS011;10636;19.390;-99.256;2022-12-29T06:05:56;6.20;;;5.60;;
20954;SDS011;10636;19.390;-99.256;2022-12-29T06:08:26;5.80;;;5.30;;
20954;SDS011;10636;19.390;-99.256;2022-12-29T06:10:55;6.82;;;5.70;;
20954;SDS011;10636;19.390;-99.256;2022-12-29T06:13:23;6.15;;;5.55;;
20954;SDS011;10636;19.390;-99.256;2022-12-29T06:15:53;6.30;;;5.80;;
20954;SDS011;10636;19.390;-99.256;2022-12-29T06:18:21;6.70;;;6.10;;
20954;SDS011;10636;19.390;-99.256;2022-12-29T06:20:50;6.05;;;5.55;;
20954;SDS011;10636;19.390;-99.256;2022-12-29T06:23:21;6.20;;;5.70;;
20954;SDS011;10636;19.390;-99.256;2022-12-29T06:25:51;6.28;;;5.68;;
20954;SDS011;10636;19.390;-99.256;2022-12-29T06:28:20;6.18;;;5.38;;
20954;SDS011;10636;19.390;-99.256;2022-12-29T06:30:48;6.28;;;5.68;;
20954;SDS011;10636;19.390;-99.256;2022-12-29T06:33:17;6.10;;;5.60;;
20954;SDS011;10636;19.390;-99.256;2022-12-29T06:35:46;6.40;;;5.90;;
20954;SDS011;10636;19.390;-99.256;2022-12-29T06:38:15;6.40;;;5.80;;
20954;SDS011;10636;19.390;-99.256;2022-12-29T06:40:43;6.13;;;5.53;;
20954;SDS011;10636;19.390;-99.256;2022-12-29T06:43:13;6.15;;;5.65;;
20954;SDS011;10636;19.390;-99.256;2022-12-29T06:45:42;6.40;;;5.68;;
20954;SDS011;10636;19.390;-99.256;2022-12-29T06:48:11;5.97;;;5.47;;
20954;SDS011;10636;19.390;-99.256;2022-12-29T06:50:40;6.00;;;5.50;;
20954;SDS011;10636;19.390;-99.256;2022-12-29T06:53:08;5.38;;;4.88;;
20954;SDS011;10636;19.390;-99.256;2022-12-29T06:55:37;5.72;;;5.22;;
20954;SDS011;10636;19.390;-99.256;2022-12-29T06:58:05;5.80;;;5.40;;
20954;SDS011;10636;19.390;-99.256;2022-12-29T07:00:35;5.88;;;5.43;;
20954;SDS011;10636;19.390;-99.256;2022-12-29T07:03:04;5.90;;;5.40;;
20954;SDS011;10636;19.390;-99.256;2022-12-29T07:05:32;6.22;;;5.72;;
20954;SDS011;10636;19.390;-99.256;2022-12-29T07:08:01;5.95;;;5.40;;
20954;SDS011;10636;19.390;-99.256;2022-12-29T07:10:29;5.90;;;5.40;;
20954;SDS011;10636;19.390;-99.256;2022-12-29T07:12:58;6.13;;;5.63;;
20954;SDS011;10636;19.390;-99.256;2022-12-29T07:15:26;5.88;;;5.38;;
20954;SDS011;10636;19.390;-99.256;2022-12-29T07:17:56;6.15;;;5.65;;
20954;SDS011;10636;19.390;-99.256;2022-12-29T07:20:25;5.90;;;5.45;;
20954;SDS011;10636;19.390;-99.256;2022-12-29T07:22:53;6.05;;;5.50;;
20954;SDS011;10636;19.390;-99.256;2022-12-29T07:25:22;6.13;;;5.53;;
20954;SDS011;10636;19.390;-99.256;2022-12-29T07:27:51;6.00;;;5.40;;
20954;SDS011;10636;19.390;-99.256;2022-12-29T07:30:19;5.90;;;5.40;;
20954;SDS011;10636;19.390;-99.256;2022-12-29T07:32:48;5.90;;;5.45;;
20954;SDS011;10636;19.390;-99.256;2022-12-29T07:35:18;5.32;;;4.93;;
20954;SDS011;10636;19.390;-99.256;2022-12-29T07:37:46;5.93;;;5.43;;
20954;SDS011;10636;19.390;-99.256;2022-12-29T07:40:15;5.30;;;4.80;;
20954;SDS011;10636;19.390;-99.256;2022-12-29T07:42:43;6.03;;;5.13;;
20954;SDS011;10636;19.390;-99.256;2022-12-29T07:45:12;5.80;;;5.38;;
20954;SDS011;10636;19.390;-99.256;2022-12-29T07:47:40;5.30;;;4.90;;
20954;SDS011;10636;19.390;-99.256;2022-12-29T07:50:09;5.40;;;5.00;;
20954;SDS011;10636;19.390;-99.256;2022-12-29T07:52:39;5.63;;;5.13;;
20954;SDS011;10636;19.390;-99.256;2022-12-29T07:55:08;6.10;;;5.53;;
20954;SDS011;10636;19.390;-99.256;2022-12-29T07:57:36;5.72;;;5.22;;
20954;SDS011;10636;19.390;-99.256;2022-12-29T08:00:05;5.35;;;4.85;;
20954;SDS011;10636;19.390;-99.256;2022-12-29T08:02:35;5.45;;;4.95;;
20954;SDS011;10636;19.390;-99.256;2022-12-29T08:05:04;5.40;;;4.90;;
20954;SDS011;10636;19.390;-99.256;2022-12-29T08:07:33;5.35;;;4.88;;
20954;SDS011;10636;19.390;-99.256;2022-12-29T08:10:03;5.97;;;5.00;;
20954;SDS011;10636;19.390;-99.256;2022-12-29T08:12:32;5.85;;;5.22;;
20954;SDS011;10636;19.390;-99.256;2022-12-29T08:15:01;5.88;;;5.38;;
20954;SDS011;10636;19.390;-99.256;2022-12-29T08:17:29;5.50;;;5.00;;
20954;SDS011;10636;19.390;-99.256;2022-12-29T08:19:58;5.10;;;4.65;;
20954;SDS011;10636;19.390;-99.256;2022-12-29T08:22:27;5.47;;;4.97;;
20954;SDS011;10636;19.390;-99.256;2022-12-29T08:24:55;5.45;;;4.95;;
20954;SDS011;10636;19.390;-99.256;2022-12-29T08:27:25;5.53;;;5.03;;
20954;SDS011;10636;19.390;-99.256;2022-12-29T08:29:54;5.50;;;5.10;;
20954;SDS011;10636;19.390;-99.256;2022-12-29T08:32:22;5.28;;;4.88;;
20954;SDS011;10636;19.390;-99.256;2022-12-29T08:34:52;5.47;;;4.97;;
20954;SDS011;10636;19.390;-99.256;2022-12-29T08:37:20;5.15;;;4.75;;
20954;SDS011;10636;19.390;-99.256;2022-12-29T08:39:49;5.40;;;5.00;;
20954;SDS011;10636;19.390;-99.256;2022-12-29T08:42:17;5.40;;;4.90;;
20954;SDS011;10636;19.390;-99.256;2022-12-29T08:44:48;5.28;;;4.88;;
20954;SDS011;10636;19.390;-99.256;2022-12-29T08:47:16;5.10;;;4.70;;
20954;SDS011;10636;19.390;-99.256;2022-12-29T08:49:45;5.07;;;4.68;;
20954;SDS011;10636;19.390;-99.256;2022-12-29T08:52:13;5.22;;;4.72;;
20954;SDS011;10636;19.390;-99.256;2022-12-29T08:54:42;5.30;;;4.90;;
20954;SDS011;10636;19.390;-99.256;2022-12-29T08:57:13;5.18;;;4.68;;
20954;SDS011;10636;19.390;-99.256;2022-12-29T08:59:41;5.18;;;4.68;;
20954;SDS011;10636;19.390;-99.256;2022-12-29T09:02:11;4.80;;;4.40;;
20954;SDS011;10636;19.390;-99.256;2022-12-29T09:04:40;5.00;;;4.60;;
20954;SDS011;10636;19.390;-99.256;2022-12-29T09:07:09;5.40;;;5.00;;
20954;SDS011;10636;19.390;-99.256;2022-12-29T09:09:38;4.75;;;4.45;;
20954;SDS011;10636;19.390;-99.256;2022-12-29T09:12:06;5.32;;;4.85;;
20954;SDS011;10636;19.390;-99.256;2022-12-29T09:14:35;4.90;;;4.50;;
20954;SDS011;10636;19.390;-99.256;2022-12-29T09:17:03;5.25;;;4.80;;
20954;SDS011;10636;19.390;-99.256;2022-12-29T09:19:51;5.00;;;4.60;;
20954;SDS011;10636;19.390;-99.256;2022-12-29T09:22:19;4.72;;;4.40;;
20954;SDS011;10636;19.390;-99.256;2022-12-29T09:24:48;4.82;;;4.40;;
20954;SDS011;10636;19.390;-99.256;2022-12-29T09:27:16;4.65;;;4.25;;
20954;SDS011;10636;19.390;-99.256;2022-12-29T09:29:45;5.10;;;4.63;;
20954;SDS011;10636;19.390;-99.256;2022-12-29T09:32:13;5.00;;;4.55;;
20954;SDS011;10636;19.390;-99.256;2022-12-29T09:34:42;4.90;;;4.40;;
20954;SDS011;10636;19.390;-99.256;2022-12-29T09:37:12;5.05;;;4.63;;
20954;SDS011;10636;19.390;-99.256;2022-12-29T09:39:40;5.07;;;4.68;;
20954;SDS011;10636;19.390;-99.256;2022-12-29T09:42:11;5.13;;;4.68;;
20954;SDS011;10636;19.390;-99.256;2022-12-29T09:44:50;4.80;;;4.40;;
20954;SDS011;10636;19.390;-99.256;2022-12-29T09:47:23;5.03;;;4.63;;
20954;SDS011;10636;19.390;-99.256;2022-12-29T09:49:56;5.03;;;4.53;;
20954;SDS011;10636;19.390;-99.256;2022-12-29T09:52:31;4.75;;;4.35;;
20954;SDS011;10636;19.390;-99.256;2022-12-29T09:55:05;4.80;;;4.40;;
20954;SDS011;10636;19.390;-99.256;2022-12-29T09:57:39;4.72;;;4.43;;
20954;SDS011;10636;19.390;-99.256;2022-12-29T10:00:12;5.13;;;4.72;;
20954;SDS011;10636;19.390;-99.256;2022-12-29T10:02:44;5.05;;;4.65;;
20954;SDS011;10636;19.390;-99.256;2022-12-29T10:05:28;4.43;;;4.03;;
20954;SDS011;10636;19.390;-99.256;2022-12-29T10:08:10;5.10;;;4.60;;
20954;SDS011;10636;19.390;-99.256;2022-12-29T10:10:48;5.00;;;4.50;;
20954;SDS011;10636;19.390;-99.256;2022-12-29T10:13:26;4.70;;;4.20;;
20954;SDS011;10636;19.390;-99.256;2022-12-29T10:16:05;4.88;;;4.47;;
20954;SDS011;10636;19.390;-99.256;2022-12-29T10:18:48;4.60;;;4.20;;
20954;SDS011;10636;19.390;-99.256;2022-12-29T10:21:39;4.70;;;4.30;;
20954;SDS011;10636;19.390;-99.256;2022-12-29T10:24:23;4.80;;;4.40;;
20954;SDS011;10636;19.390;-99.256;2022-12-29T10:26:53;4.90;;;4.50;;
20954;SDS011;10636;19.390;-99.256;2022-12-29T10:29:26;4.65;;;4.35;;
20954;SDS011;10636;19.390;-99.256;2022-12-29T10:32:00;4.70;;;4.35;;
20954;SDS011;10636;19.390;-99.256;2022-12-29T10:34:34;4.32;;;3.97;;
20954;SDS011;10636;19.390;-99.256;2022-12-29T10:37:09;4.43;;;4.03;;
20954;SDS011;10636;19.390;-99.256;2022-12-29T10:39:44;4.38;;;4.03;;
20954;SDS011;10636;19.390;-99.256;2022-12-29T10:42:25;4.57;;;4.18;;
20954;SDS011;10636;19.390;-99.256;2022-12-29T10:44:55;4.55;;;4.13;;
20954;SDS011;10636;19.390;-99.256;2022-12-29T10:47:25;4.57;;;4.03;;
20954;SDS011;10636;19.390;-99.256;2022-12-29T10:49:56;4.30;;;3.90;;
20954;SDS011;10636;19.390;-99.256;2022-12-29T10:52:27;4.07;;;3.78;;
20954;SDS011;10636;19.390;-99.256;2022-12-29T10:55:00;4.60;;;4.20;;
20954;SDS011;10636;19.390;-99.256;2022-12-29T10:57:31;4.45;;;4.05;;
20954;SDS011;10636;19.390;-99.256;2022-12-29T11:00:05;4.40;;;4.00;;
20954;SDS011;10636;19.390;-99.256;2022-12-29T11:02:46;4.43;;;4.13;;
20954;SDS011;10636;19.390;-99.256;2022-12-29T11:05:28;4.13;;;3.83;;
20954;SDS011;10636;19.390;-99.256;2022-12-29T11:08:02;4.97;;;3.97;;
20954;SDS011;10636;19.390;-99.256;2022-12-29T11:10:38;4.35;;;4.00;;
20954;SDS011;10636;19.390;-99.256;2022-12-29T11:13:11;3.80;;;3.50;;
20954;SDS011;10636;19.390;-99.256;2022-12-29T11:15:42;4.00;;;3.70;;
20954;SDS011;10636;19.390;-99.256;2022-12-29T11:18:19;3.78;;;3.47;;
20954;SDS011;10636;19.390;-99.256;2022-12-29T11:20:50;3.80;;;3.50;;
20954;SDS011;10636;19.390;-99.256;2022-12-29T11:23:24;3.97;;;3.67;;
20954;SDS011;10636;19.390;-99.256;2022-12-29T11:31:50;4.03;;;3.72;;
20954;SDS011;10636;19.390;-99.256;2022-12-29T11:34:21;3.70;;;3.40;;
20954;SDS011;10636;19.390;-99.256;2022-12-29T11:36:51;3.88;;;3.58;;
20954;SDS011;10636;19.390;-99.256;2022-12-29T11:39:26;3.72;;;3.42;;
20954;SDS011;10636;19.390;-99.256;2022-12-29T11:42:02;3.80;;;3.50;;
20954;SDS011;10636;19.390;-99.256;2022-12-29T11:44:36;3.90;;;3.60;;
20954;SDS011;10636;19.390;-99.256;2022-12-29T11:47:11;3.58;;;3.28;;
20954;SDS011;10636;19.390;-99.256;2022-12-29T11:49:52;3.50;;;3.30;;
20954;SDS011;10636;19.390;-99.256;2022-12-29T11:52:23;3.53;;;3.33;;
20954;SDS011;10636;19.390;-99.256;2022-12-29T11:54:56;3.60;;;3.30;;
20954;SDS011;10636;19.390;-99.256;2022-12-29T11:57:28;3.70;;;3.40;;
20954;SDS011;10636;19.390;-99.256;2022-12-29T12:00:00;3.80;;;3.50;;
20954;SDS011;10636;19.390;-99.256;2022-12-29T12:02:33;3.50;;;3.20;;
20954;SDS011;10636;19.390;-99.256;2022-12-29T12:08:04;3.60;;;3.30;;
20954;SDS011;10636;19.390;-99.256;2022-12-29T12:10:41;3.60;;;3.30;;
20954;SDS011;10636;19.390;-99.256;2022-12-29T12:13:22;3.60;;;3.30;;
20954;SDS011;10636;19.390;-99.256;2022-12-29T12:15:57;3.50;;;3.20;;
20954;SDS011;10636;19.390;-99.256;2022-12-29T12:18:33;3.80;;;3.40;;
20954;SDS011;10636;19.390;-99.256;2022-12-29T12:21:10;3.50;;;3.20;;
20954;SDS011;10636;19.390;-99.256;2022-12-29T12:23:45;3.60;;;3.35;;
20954;SDS011;10636;19.390;-99.256;2022-12-29T12:26:28;3.65;;;3.30;;
20954;SDS011;10636;19.390;-99.256;2022-12-29T12:29:12;3.42;;;3.15;;
20954;SDS011;10636;19.390;-99.256;2022-12-29T12:31:45;3.92;;;3.53;;
20954;SDS011;10636;19.390;-99.256;2022-12-29T12:34:20;3.47;;;3.17;;
20954;SDS011;10636;19.390;-99.256;2022-12-29T12:36:57;3.50;;;3.20;;
20954;SDS011;10636;19.390;-99.256;2022-12-29T12:39:36;3.58;;;3.28;;
20954;SDS011;10636;19.390;-99.256;2022-12-29T12:42:16;4.00;;;3.70;;
20954;SDS011;10636;19.390;-99.256;2022-12-29T12:44:58;3.50;;;3.30;;
20954;SDS011;10636;19.390;-99.256;2022-12-29T12:47:46;3.78;;;3.42;;
20954;SDS011;10636;19.390;-99.256;2022-12-29T12:50:32;3.33;;;3.10;;
20954;SDS011;10636;19.390;-99.256;2022-12-29T12:53:18;3.65;;;3.40;;
20954;SDS011;10636;19.390;-99.256;2022-12-29T12:56:01;3.35;;;3.15;;
20954;SDS011;10636;19.390;-99.256;2022-12-29T12:58:40;3.10;;;2.90;;
20954;SDS011;10636;19.390;-99.256;2022-12-29T13:01:21;3.42;;;3.13;;
20954;SDS011;10636;19.390;-99.256;2022-12-29T13:04:02;3.33;;;3.13;;
20954;SDS011;10636;19.390;-99.256;2022-12-29T13:06:54;3.50;;;3.20;;
20954;SDS011;10636;19.390;-99.256;2022-12-29T13:09:36;3.30;;;3.10;;
20954;SDS011;10636;19.390;-99.256;2022-12-29T13:12:18;3.50;;;3.20;;
20954;SDS011;10636;19.390;-99.256;2022-12-29T13:15:00;3.38;;;3.08;;
20954;SDS011;10636;19.390;-99.256;2022-12-29T13:17:39;3.60;;;3.30;;
20954;SDS011;10636;19.390;-99.256;2022-12-29T13:20:18;3.60;;;3.30;;
20954;SDS011;10636;19.390;-99.256;2022-12-29T13:22:56;3.50;;;3.20;;
20954;SDS011;10636;19.390;-99.256;2022-12-29T13:25:34;3.60;;;3.30;;
20954;SDS011;10636;19.390;-99.256;2022-12-29T13:28:09;3.40;;;3.13;;
20954;SDS011;10636;19.390;-99.256;2022-12-29T13:30:45;3.55;;;3.25;;
20954;SDS011;10636;19.390;-99.256;2022-12-29T13:33:27;3.28;;;2.97;;
20954;SDS011;10636;19.390;-99.256;2022-12-29T13:36:03;3.60;;;3.30;;
20954;SDS011;10636;19.390;-99.256;2022-12-29T13:38:38;3.40;;;3.10;;
20954;SDS011;10636;19.390;-99.256;2022-12-29T13:41:11;3.53;;;3.20;;
20954;SDS011;10636;19.390;-99.256;2022-12-29T13:43:42;3.58;;;3.13;;
20954;SDS011;10636;19.390;-99.256;2022-12-29T13:46:15;3.42;;;3.13;;
20954;SDS011;10636;19.390;-99.256;2022-12-29T13:48:50;3.38;;;2.97;;
20954;SDS011;10636;19.390;-99.256;2022-12-29T13:51:21;3.67;;;3.33;;
20954;SDS011;10636;19.390;-99.256;2022-12-29T13:56:48;3.53;;;3.22;;
20954;SDS011;10636;19.390;-99.256;2022-12-29T13:59:20;3.90;;;3.30;;
20954;SDS011;10636;19.390;-99.256;2022-12-29T14:01:54;3.65;;;3.28;;
20954;SDS011;10636;19.390;-99.256;2022-12-29T14:04:29;3.70;;;3.40;;
20954;SDS011;10636;19.390;-99.256;2022-12-29T14:07:01;3.92;;;3.45;;
20954;SDS011;10636;19.390;-99.256;2022-12-29T14:12:24;4.00;;;3.60;;
20954;SDS011;10636;19.390;-99.256;2022-12-29T14:15:05;3.72;;;3.33;;
20954;SDS011;10636;19.390;-99.256;2022-12-29T14:20:34;3.78;;;3.47;;
20954;SDS011;10636;19.390;-99.256;2022-12-29T14:23:15;4.20;;;3.55;;
20954;SDS011;10636;19.390;-99.256;2022-12-29T14:25:57;4.07;;;3.70;;
20954;SDS011;10636;19.390;-99.256;2022-12-29T14:28:40;4.97;;;4.03;;
20954;SDS011;10636;19.390;-99.256;2022-12-29T14:34:26;4.63;;;3.83;;
20954;SDS011;10636;19.390;-99.256;2022-12-29T14:36:57;4.35;;;3.92;;
20954;SDS011;10636;19.390;-99.256;2022-12-29T14:39:31;4.13;;;3.72;;
20954;SDS011;10636;19.390;-99.256;2022-12-29T14:42:04;4.72;;;4.25;;
20954;SDS011;10636;19.390;-99.256;2022-12-29T14:44:45;4.70;;;4.10;;
20954;SDS011;10636;19.390;-99.256;2022-12-29T14:47:16;4.60;;;4.05;;
20954;SDS011;10636;19.390;-99.256;2022-12-29T14:49:48;8.10;;;4.15;;
20954;SDS011;10636;19.390;-99.256;2022-12-29T14:52:19;6.43;;;4.72;;
20954;SDS011;10636;19.390;-99.256;2022-12-29T14:54:51;7.50;;;4.30;;
20954;SDS011;10636;19.390;-99.256;2022-12-29T14:57:24;5.53;;;3.88;;
20954;SDS011;10636;19.390;-99.256;2022-12-29T15:02:46;3.95;;;3.50;;
20954;SDS011;10636;19.390;-99.256;2022-12-29T15:05:26;4.40;;;3.90;;
20954;SDS011;10636;19.390;-99.256;2022-12-29T15:07:59;5.55;;;4.32;;
20954;SDS011;10636;19.390;-99.256;2022-12-29T15:10:32;5.72;;;4.50;;
20954;SDS011;10636;19.390;-99.256;2022-12-29T15:13:13;5.72;;;4.75;;
20954;SDS011;10636;19.390;-99.256;2022-12-29T15:15:44;6.60;;;4.50;;
20954;SDS011;10636;19.390;-99.256;2022-12-29T15:18:23;5.93;;;5.30;;
20954;SDS011;10636;19.390;-99.256;2022-12-29T15:20:54;6.88;;;5.35;;